createdAt,value
2023-03-17T00:00:46.757Z,97537.69
2023-03-17T00:03:27.059Z,97530.34
2023-03-17T00:05:55.869Z,97538.25
2023-03-17T00:08:29.238Z,97543.59
2023-03-17T00:10:56.594Z,97548.28
2023-03-17T00:13:23.956Z,97542.94
2023-03-17T00:15:56.946Z,97541.31
2023-03-17T00:18:24.776Z,97531.78
2023-03-17T00:20:53.083Z,97535.97
2023-03-17T00:23:25.375Z,97519.66
2023-03-17T00:25:54.203Z,97520.78
2023-03-17T00:28:24.633Z,97518.78
2023-03-17T00:30:56.454Z,97515.28
2023-03-17T00:33:27.906Z,97504.44
2023-03-17T00:35:57.154Z,97503.50
2023-03-17T00:38:25.622Z,97502.38
2023-03-17T00:40:53.008Z,97489.19
2023-03-17T00:43:22.684Z,97492.50
2023-03-17T00:45:51.081Z,97490.03
2023-03-17T00:48:21.068Z,97490.19
2023-03-17T00:50:50.067Z,97484.34
2023-03-17T00:53:23.187Z,97487.69
2023-03-17T00:55:50.270Z,97482.19
2023-03-17T00:58:34.411Z,97482.38
2023-03-17T01:01:02.288Z,97483.59
2023-03-17T01:03:29.609Z,97483.69
2023-03-17T01:05:57.971Z,97481.22
2023-03-17T01:08:25.738Z,97477.41
2023-03-17T01:10:54.671Z,97473.13
2023-03-17T01:13:22.232Z,97462.28
2023-03-17T01:15:52.013Z,97449.97
2023-03-17T01:18:22.794Z,97471.22
2023-03-17T01:20:51.944Z,97461.34
2023-03-17T01:23:19.236Z,97460.19
2023-03-17T01:25:46.303Z,97454.94
2023-03-17T01:28:19.014Z,97449.66
2023-03-17T01:30:46.991Z,97454.41
2023-03-17T01:33:14.876Z,97452.75
2023-03-17T01:35:43.778Z,97447.25
2023-03-17T01:38:11.855Z,97444.88
2023-03-17T01:40:46.811Z,97444.66
2023-03-17T01:43:17.432Z,97448.44
2023-03-17T01:46:30.932Z,97449.69
2023-03-17T01:49:21.797Z,97439.72
2023-03-17T01:52:10.263Z,97442.59
2023-03-17T01:55:08.066Z,97439.94
2023-03-17T01:57:40.069Z,97443.09
2023-03-17T02:00:16.330Z,97441.19
2023-03-17T02:02:48.936Z,97442.09
2023-03-17T02:05:21.537Z,97435.44
2023-03-17T02:07:49.261Z,97441.16
2023-03-17T02:10:20.610Z,97436.25
2023-03-17T02:12:54.085Z,97429.53
2023-03-17T02:15:22.112Z,97433.91
2023-03-17T02:17:50.429Z,97446.78
2023-03-17T02:20:17.686Z,97436.56
2023-03-17T02:22:49.532Z,97434.53
2023-03-17T02:25:19.808Z,97434.72
2023-03-17T02:27:51.360Z,97433.09
2023-03-17T02:30:23.516Z,97434.53
2023-03-17T02:32:51.059Z,97425.81
2023-03-17T02:35:19.558Z,97423.94
2023-03-17T02:37:47.206Z,97419.13
2023-03-17T02:40:16.576Z,97410.88
2023-03-17T02:42:44.136Z,97411.56
2023-03-17T02:45:12.992Z,97416.88
2023-03-17T02:47:41.449Z,97405.25
2023-03-17T02:50:12.160Z,97408.16
2023-03-17T02:52:39.115Z,97414.34
2023-03-17T02:55:08.287Z,97407.41
2023-03-17T02:57:38.381Z,97400.59
2023-03-17T03:00:06.007Z,97395.53
2023-03-17T03:02:33.621Z,97396.56
2023-03-17T03:05:01.025Z,97398.94
2023-03-17T03:07:28.419Z,97405.91
2023-03-17T03:09:55.973Z,97400.13
2023-03-17T03:12:23.376Z,97394.59
2023-03-17T03:14:50.448Z,97394.59
2023-03-17T03:17:18.190Z,97393.34
2023-03-17T03:19:45.581Z,97409.66
2023-03-17T03:22:12.908Z,97399.13
2023-03-17T03:24:39.843Z,97400.16
2023-03-17T03:27:07.145Z,97392.03
2023-03-17T03:29:34.430Z,97388.31
2023-03-17T03:32:02.106Z,97388.50
2023-03-17T03:34:29.608Z,97383.22
2023-03-17T03:36:57.041Z,97384.88
2023-03-17T03:39:24.106Z,97384.13
2023-03-17T03:41:51.125Z,97390.41
2023-03-17T03:44:18.752Z,97396.97
2023-03-17T03:46:45.803Z,97401.81
2023-03-17T03:49:13.191Z,97399.22
2023-03-17T03:51:40.579Z,97394.50
2023-03-17T03:54:07.640Z,97396.59
2023-03-17T03:56:35.327Z,97407.31
2023-03-17T03:59:03.041Z,97395.31
2023-03-17T04:01:30.059Z,97399.66
2023-03-17T04:03:57.386Z,97414.09
2023-03-17T04:06:24.330Z,97404.41
2023-03-17T04:08:51.656Z,97408.06
2023-03-17T04:11:18.647Z,97414.34
2023-03-17T04:13:46.256Z,97411.53
2023-03-17T04:16:13.666Z,97407.16
2023-03-17T04:18:41.359Z,97407.25
2023-03-17T04:21:08.742Z,97400.44
2023-03-17T04:23:36.292Z,97403.81
2023-03-17T04:26:04.166Z,97398.78
2023-03-17T04:28:31.400Z,97407.53
2023-03-17T04:30:58.350Z,97403.81
2023-03-17T04:33:26.761Z,97408.22
2023-03-17T04:35:54.121Z,97408.72
2023-03-17T04:38:21.775Z,97404.50
2023-03-17T04:40:50.971Z,97406.50
2023-03-17T04:43:18.349Z,97402.84
2023-03-17T04:45:45.312Z,97406.06
2023-03-17T04:48:12.335Z,97402.97
2023-03-17T04:50:39.736Z,97399.06
2023-03-17T04:53:06.809Z,97396.56
2023-03-17T04:55:34.203Z,97395.69
2023-03-17T04:58:01.356Z,97391.28
2023-03-17T05:00:28.930Z,97392.41
2023-03-17T05:02:56.464Z,97388.53
2023-03-17T05:05:23.575Z,97399.31
2023-03-17T05:07:50.803Z,97391.81
2023-03-17T05:10:18.283Z,97391.38
2023-03-17T05:12:45.414Z,97389.81
2023-03-17T05:15:12.880Z,97392.38
2023-03-17T05:17:41.308Z,97383.91
2023-03-17T05:20:09.647Z,97382.72
2023-03-17T05:22:37.251Z,97376.00
2023-03-17T05:25:06.720Z,97362.13
2023-03-17T05:27:33.802Z,97368.91
2023-03-17T05:30:00.929Z,97369.59
2023-03-17T05:32:27.937Z,97369.22
2023-03-17T05:34:55.305Z,97368.28
2023-03-17T05:37:22.661Z,97368.53
2023-03-17T05:39:49.989Z,97382.78
2023-03-17T05:42:17.405Z,97389.06
2023-03-17T05:44:44.517Z,97388.00
2023-03-17T05:47:11.991Z,97396.16
2023-03-17T05:49:39.359Z,97395.41
2023-03-17T05:52:06.747Z,97404.00
2023-03-17T05:54:33.736Z,97407.66
2023-03-17T05:57:01.219Z,97409.91
2023-03-17T05:59:29.119Z,97409.13
2023-03-17T06:01:57.165Z,97407.50
2023-03-17T06:04:24.624Z,97395.13
2023-03-17T06:06:51.782Z,97392.50
2023-03-17T06:09:19.285Z,97397.97
2023-03-17T06:11:46.688Z,97402.75
2023-03-17T06:14:14.719Z,97389.31
2023-03-17T06:16:42.166Z,97390.59
2023-03-17T06:19:09.128Z,97395.50
2023-03-17T06:21:36.941Z,97388.81
2023-03-17T06:24:04.658Z,97388.47
2023-03-17T06:26:32.028Z,97383.59
2023-03-17T06:28:59.320Z,97389.72
2023-03-17T06:31:27.918Z,97406.19
2023-03-17T06:33:55.598Z,97410.13
2023-03-17T06:36:23.287Z,97401.94
2023-03-17T06:38:50.897Z,97397.69
2023-03-17T06:41:18.982Z,97403.56
2023-03-17T06:43:46.592Z,97403.09
2023-03-17T06:46:14.209Z,97398.00
2023-03-17T06:48:41.206Z,97406.69
2023-03-17T06:51:08.654Z,97399.59
2023-03-17T06:53:36.246Z,97396.47
2023-03-17T06:56:05.086Z,97393.47
2023-03-17T06:58:33.146Z,97399.25
2023-03-17T07:01:00.382Z,97402.63
2023-03-17T07:03:28.007Z,97391.91
2023-03-17T07:05:55.388Z,97383.13
2023-03-17T07:08:22.748Z,97380.25
2023-03-17T07:10:50.103Z,97384.13
2023-03-17T07:13:17.079Z,97383.50
2023-03-17T07:15:45.483Z,97384.69
2023-03-17T07:18:13.451Z,97395.78
2023-03-17T07:20:41.168Z,97397.34
2023-03-17T07:23:15.628Z,97391.84
2023-03-17T07:25:46.033Z,97395.59
2023-03-17T07:28:16.300Z,97396.88
2023-03-17T07:30:46.832Z,97398.88
2023-03-17T07:33:14.634Z,97395.56
2023-03-17T07:35:42.475Z,97388.94
2023-03-17T07:38:10.194Z,97384.31
2023-03-17T07:40:37.778Z,97380.97
2023-03-17T07:43:05.497Z,97379.53
2023-03-17T07:45:33.476Z,97381.66
2023-03-17T07:48:01.257Z,97384.88
2023-03-17T07:50:28.794Z,97380.53
2023-03-17T07:52:56.673Z,97375.97
2023-03-17T07:55:24.176Z,97373.50
2023-03-17T07:57:51.651Z,97367.81
2023-03-17T08:00:21.759Z,97370.91
2023-03-17T08:03:03.192Z,97377.84
2023-03-17T08:05:35.937Z,97373.91
2023-03-17T08:08:05.035Z,97373.91
2023-03-17T08:10:32.655Z,97367.59
2023-03-17T08:13:00.226Z,97374.78
2023-03-17T08:15:27.267Z,97373.66
2023-03-17T08:17:54.203Z,97371.28
2023-03-17T08:20:21.824Z,97363.47
2023-03-17T08:22:48.856Z,97359.28
2023-03-17T08:25:16.364Z,97366.84
2023-03-17T08:27:43.404Z,97371.16
2023-03-17T08:30:12.590Z,97376.69
2023-03-17T08:32:39.595Z,97375.72
2023-03-17T08:35:06.931Z,97376.94
2023-03-17T08:37:34.335Z,97377.81
2023-03-17T08:40:01.498Z,97374.81
2023-03-17T08:42:28.519Z,97381.44
2023-03-17T08:44:55.723Z,97372.38
2023-03-17T08:47:23.601Z,97368.88
2023-03-17T08:49:50.977Z,97371.16
2023-03-17T08:52:18.340Z,97361.91
2023-03-17T08:54:47.035Z,97361.56
2023-03-17T08:57:15.689Z,97357.44
2023-03-17T08:59:42.774Z,97357.34
2023-03-17T09:02:11.983Z,97354.16
2023-03-17T09:04:40.313Z,97346.53
2023-03-17T09:07:09.695Z,97345.06
2023-03-17T09:09:37.646Z,97344.75
2023-03-17T09:12:06.598Z,97346.16
2023-03-17T09:14:42.821Z,97350.31
2023-03-17T09:17:11.319Z,97345.69
2023-03-17T09:19:38.894Z,97349.47
2023-03-17T09:22:06.792Z,97355.38
2023-03-17T09:24:34.200Z,97350.81
2023-03-17T09:27:01.573Z,97346.34
2023-03-17T09:29:28.573Z,97341.53
2023-03-17T09:31:56.989Z,97333.75
2023-03-17T09:34:25.576Z,97331.16
2023-03-17T09:36:54.603Z,97325.78
2023-03-17T09:39:24.177Z,97321.34
2023-03-17T09:42:01.900Z,97321.63
2023-03-17T09:44:32.259Z,97331.47
2023-03-17T09:47:08.465Z,97334.91
2023-03-17T09:49:47.504Z,97331.50
2023-03-17T09:52:25.995Z,97324.59
2023-03-17T09:54:53.615Z,97329.66
2023-03-17T09:57:39.619Z,97325.41
2023-03-17T10:00:16.896Z,97317.56
2023-03-17T10:02:45.419Z,97329.97
2023-03-17T10:05:26.261Z,97323.75
2023-03-17T10:08:06.314Z,97320.75
2023-03-17T10:11:13.368Z,97322.41
2023-03-17T10:13:52.214Z,97317.84
2023-03-17T10:16:42.783Z,97307.22
2023-03-17T10:19:41.572Z,97301.25
2023-03-17T10:22:25.277Z,97299.31
2023-03-17T10:24:58.006Z,97304.56
2023-03-17T10:27:26.274Z,97298.75
2023-03-17T10:29:53.654Z,97292.22
2023-03-17T10:32:20.830Z,97288.78
2023-03-17T10:34:48.799Z,97285.03
2023-03-17T10:37:23.379Z,97276.63
2023-03-17T10:39:59.718Z,97277.47
2023-03-17T10:42:29.806Z,97273.84
2023-03-17T10:45:07.502Z,97274.34
2023-03-17T10:47:39.871Z,97274.81
2023-03-17T10:50:54.385Z,97272.00
2023-03-17T10:53:30.585Z,97273.84
2023-03-17T10:56:07.437Z,97274.66
2023-03-17T10:58:44.530Z,97262.47
2023-03-17T11:01:34.678Z,97264.84
2023-03-17T11:04:06.357Z,97260.59
2023-03-17T11:06:42.794Z,97258.38
2023-03-17T11:09:16.704Z,97263.25
2023-03-17T11:11:50.030Z,97252.88
2023-03-17T11:14:20.406Z,97259.22
2023-03-17T11:16:54.877Z,97251.97
2023-03-17T11:19:34.316Z,97240.78
2023-03-17T11:22:20.760Z,97250.50
2023-03-17T11:25:27.144Z,97231.91
2023-03-17T11:28:20.381Z,97237.56
2023-03-17T11:31:19.859Z,97227.00
2023-03-17T11:34:35.122Z,97218.88
2023-03-17T11:37:26.324Z,97217.00
2023-03-17T11:40:19.777Z,97213.50
2023-03-17T11:43:11.443Z,97214.56
2023-03-17T11:46:17.115Z,97211.78
2023-03-17T11:49:00.900Z,97211.88
2023-03-17T11:51:37.454Z,97209.50
2023-03-17T11:54:36.070Z,97205.28
2023-03-17T11:57:20.668Z,97205.69
2023-03-17T11:59:58.945Z,97203.47
2023-03-17T12:02:37.528Z,97192.41
2023-03-17T12:05:17.087Z,97194.81
2023-03-17T12:07:53.170Z,97187.09
2023-03-17T12:10:42.264Z,97185.91
2023-03-17T12:13:20.436Z,97178.94
2023-03-17T12:15:53.121Z,97181.69
2023-03-17T12:18:37.653Z,97177.13
2023-03-17T12:21:15.335Z,97175.78
2023-03-17T12:23:52.351Z,97173.38
2023-03-17T12:26:32.893Z,97175.81
2023-03-17T12:29:17.103Z,97174.75
2023-03-17T12:32:29.432Z,97179.00
2023-03-17T12:34:58.793Z,97172.84
2023-03-17T12:37:28.549Z,97173.38
2023-03-17T12:40:06.921Z,97171.25
2023-03-17T12:43:21.898Z,97167.41
2023-03-17T12:46:04.614Z,97164.16
2023-03-17T12:48:49.676Z,97160.94
2023-03-17T12:52:02.619Z,97156.69
2023-03-17T12:54:34.232Z,97157.53
2023-03-17T12:57:18.539Z,97156.47
2023-03-17T12:59:49.744Z,97155.91
2023-03-17T13:02:28.881Z,97151.84
2023-03-17T13:05:01.804Z,97150.53
2023-03-17T13:07:40.403Z,97150.22
2023-03-17T13:10:40.113Z,97149.72
2023-03-17T13:13:21.729Z,97140.28
2023-03-17T13:15:58.004Z,97144.16
2023-03-17T13:18:47.165Z,97140.66
2023-03-17T13:21:17.478Z,97139.44
2023-03-17T13:24:13.679Z,97133.16
2023-03-17T13:26:56.383Z,97130.22
2023-03-17T13:29:32.908Z,97125.53
2023-03-17T13:32:27.781Z,97119.84
2023-03-17T13:35:17.585Z,97119.00
2023-03-17T13:38:03.715Z,97118.28
2023-03-17T13:40:55.763Z,97112.81
2023-03-17T13:43:22.636Z,97111.72
2023-03-17T13:45:50.356Z,97110.91
2023-03-17T13:48:47.534Z,97106.84
2023-03-17T13:51:33.851Z,97102.53
2023-03-17T13:54:33.975Z,97102.00
2023-03-17T13:57:28.785Z,97095.56
2023-03-17T14:00:31.661Z,97091.59
2023-03-17T14:03:25.579Z,97091.53
2023-03-17T14:05:55.696Z,97089.72
2023-03-17T14:08:47.431Z,97081.63
2023-03-17T14:11:31.547Z,97078.41
2023-03-17T14:14:31.568Z,97078.66
2023-03-17T14:17:29.275Z,97076.53
2023-03-17T14:20:12.938Z,97066.22
2023-03-17T14:22:45.872Z,97069.88
2023-03-17T14:25:26.161Z,97068.03
2023-03-17T14:27:57.093Z,97068.84
2023-03-17T14:30:29.625Z,97061.09
2023-03-17T14:33:26.664Z,97057.88
2023-03-17T14:35:59.192Z,97058.41
2023-03-17T14:38:50.030Z,97059.19
2023-03-17T14:41:24.066Z,97056.72
2023-03-17T14:43:54.418Z,97062.41
2023-03-17T14:46:37.439Z,97049.31
2023-03-17T14:49:20.383Z,97044.94
2023-03-17T14:51:57.385Z,97049.19
2023-03-17T14:54:31.348Z,97047.50
2023-03-17T14:57:06.956Z,97051.00
2023-03-17T14:59:40.544Z,97045.00
2023-03-17T15:02:24.696Z,97040.91
2023-03-17T15:04:57.124Z,97037.22
2023-03-17T15:07:36.814Z,97036.09
2023-03-17T15:10:07.336Z,97030.59
2023-03-17T15:12:34.370Z,97043.06
2023-03-17T15:15:12.581Z,97033.03
2023-03-17T15:17:39.663Z,97037.28
2023-03-17T15:20:14.620Z,97033.28
2023-03-17T15:22:45.914Z,97031.63
2023-03-17T15:25:44.978Z,97028.69
2023-03-17T15:28:14.897Z,97035.44
2023-03-17T15:30:48.525Z,97032.19
2023-03-17T15:33:39.614Z,97034.00
2023-03-17T15:36:07.708Z,97038.38
2023-03-17T15:38:37.003Z,97036.28
2023-03-17T15:41:04.604Z,97034.47
2023-03-17T15:43:32.002Z,97039.28
2023-03-17T15:46:04.401Z,97032.69
2023-03-17T15:48:36.213Z,97042.25
2023-03-17T15:51:05.132Z,97041.00
2023-03-17T15:53:32.315Z,97031.47
2023-03-17T15:55:59.773Z,97038.59
2023-03-17T15:58:27.065Z,97036.25
2023-03-17T16:00:57.313Z,97033.22
2023-03-17T16:03:41.219Z,97034.97
2023-03-17T16:06:20.898Z,97031.38
2023-03-17T16:08:49.112Z,97037.34
2023-03-17T16:11:19.999Z,97033.88
2023-03-17T16:13:47.828Z,97024.88
2023-03-17T16:16:35.800Z,97013.94
2023-03-17T16:19:10.287Z,97019.97
2023-03-17T16:21:37.467Z,97020.09
2023-03-17T16:24:04.979Z,97028.41
2023-03-17T16:26:31.989Z,97025.69
2023-03-17T16:28:58.985Z,97021.16
2023-03-17T16:31:31.167Z,97016.50
2023-03-17T16:33:58.690Z,97016.81
2023-03-17T16:36:26.346Z,97017.81
2023-03-17T16:38:53.685Z,97019.38
2023-03-17T16:41:23.786Z,97023.06
2023-03-17T16:43:59.748Z,97029.72
2023-03-17T16:46:28.373Z,97021.25
2023-03-17T16:48:56.130Z,97025.16
2023-03-17T16:51:25.489Z,97023.69
2023-03-17T16:53:52.464Z,97022.81
2023-03-17T16:56:22.386Z,97027.06
2023-03-17T16:58:49.697Z,97029.91
2023-03-17T17:01:26.395Z,97028.75
2023-03-17T17:03:54.174Z,97035.00
2023-03-17T17:06:23.079Z,97031.56
2023-03-17T17:08:51.538Z,97031.72
2023-03-17T17:11:19.935Z,97034.13
2023-03-17T17:13:48.774Z,97040.84
2023-03-17T17:16:29.552Z,97031.06
2023-03-17T17:18:58.387Z,97041.13
2023-03-17T17:21:26.561Z,97044.84
2023-03-17T17:23:54.124Z,97038.53
2023-03-17T17:26:22.323Z,97035.78
2023-03-17T17:28:49.675Z,97037.06
2023-03-17T17:31:16.980Z,97047.84
2023-03-17T17:33:44.020Z,97046.94
2023-03-17T17:36:16.838Z,97058.06
2023-03-17T17:38:44.720Z,97064.34
2023-03-17T17:41:13.046Z,97063.31
2023-03-17T17:43:41.098Z,97070.19
2023-03-17T17:46:16.751Z,97073.75
2023-03-17T17:48:43.994Z,97066.81
2023-03-17T17:51:11.599Z,97070.75
2023-03-17T17:53:38.574Z,97079.91
2023-03-17T17:56:06.580Z,97079.69
2023-03-17T17:58:33.605Z,97080.78
2023-03-17T18:01:00.989Z,97080.38
2023-03-17T18:03:28.380Z,97090.34
2023-03-17T18:05:57.736Z,97090.16
2023-03-17T18:08:25.963Z,97101.09
2023-03-17T18:10:53.126Z,97104.63
2023-03-17T18:13:20.077Z,97108.56
2023-03-17T18:15:47.176Z,97115.28
2023-03-17T18:18:14.410Z,97128.41
2023-03-17T18:20:41.436Z,97131.31
2023-03-17T18:23:10.888Z,97132.09
2023-03-17T18:25:38.215Z,97134.56
2023-03-17T18:28:05.346Z,97132.41
2023-03-17T18:30:35.000Z,97140.03
2023-03-17T18:33:17.353Z,97158.09
2023-03-17T18:35:48.048Z,97141.78
2023-03-17T18:38:15.228Z,97153.81
2023-03-17T18:40:43.109Z,97153.34
2023-03-17T18:43:10.147Z,97151.25
2023-03-17T18:45:37.952Z,97160.53
2023-03-17T18:48:05.062Z,97160.41
2023-03-17T18:50:33.072Z,97157.63
2023-03-17T18:53:00.947Z,97160.31
2023-03-17T18:55:28.004Z,97166.28
2023-03-17T18:57:55.115Z,97152.03
2023-03-17T19:00:25.126Z,97159.03
2023-03-17T19:02:52.886Z,97167.81
2023-03-17T19:05:20.298Z,97157.69
2023-03-17T19:07:47.483Z,97162.69
2023-03-17T19:10:15.060Z,97163.78
2023-03-17T19:12:42.710Z,97165.69
2023-03-17T19:15:10.683Z,97164.25
2023-03-17T19:17:38.444Z,97176.38
2023-03-17T19:20:07.288Z,97181.22
2023-03-17T19:22:34.874Z,97173.78
2023-03-17T19:25:04.429Z,97167.03
2023-03-17T19:27:31.888Z,97170.56
2023-03-17T19:29:58.883Z,97176.41
2023-03-17T19:32:26.022Z,97179.91
2023-03-17T19:34:53.587Z,97183.34
2023-03-17T19:37:21.045Z,97180.00
2023-03-17T19:39:48.318Z,97174.53
2023-03-17T19:42:16.177Z,97178.13
2023-03-17T19:44:43.861Z,97187.16
2023-03-17T19:47:11.463Z,97186.34
2023-03-17T19:49:39.242Z,97194.38
2023-03-17T19:52:07.762Z,97185.44
2023-03-17T19:54:38.490Z,97194.13
2023-03-17T19:57:05.691Z,97193.00
2023-03-17T19:59:32.812Z,97187.31
2023-03-17T20:02:00.082Z,97189.53
2023-03-17T20:04:27.177Z,97182.31
2023-03-17T20:06:55.858Z,97191.91
2023-03-17T20:09:27.745Z,97182.81
2023-03-17T20:11:56.513Z,97192.00
2023-03-17T20:14:24.579Z,97187.19
2023-03-17T20:16:53.513Z,97197.25
2023-03-17T20:19:21.006Z,97196.44
2023-03-17T20:21:48.106Z,97187.16
2023-03-17T20:24:15.317Z,97196.75
2023-03-17T20:26:44.645Z,97205.47
2023-03-17T20:29:16.184Z,97202.28
2023-03-17T20:31:43.852Z,97196.38
2023-03-17T20:34:11.825Z,97205.47
2023-03-17T20:36:42.408Z,97207.75
2023-03-17T20:39:14.796Z,97216.50
2023-03-17T20:41:42.192Z,97210.03
2023-03-17T20:44:09.781Z,97221.09
2023-03-17T20:46:36.870Z,97235.78
2023-03-17T20:49:05.616Z,97233.13
2023-03-17T20:51:33.949Z,97224.97
2023-03-17T20:54:02.307Z,97229.78
2023-03-17T20:56:30.737Z,97228.50
2023-03-17T20:58:58.647Z,97235.19
2023-03-17T21:01:26.675Z,97243.78
2023-03-17T21:03:53.856Z,97239.00
2023-03-17T21:06:21.221Z,97236.81
2023-03-17T21:08:48.541Z,97232.19
2023-03-17T21:11:19.100Z,97223.91
2023-03-17T21:13:47.141Z,97231.31
2023-03-17T21:16:22.526Z,97245.09
2023-03-17T21:18:49.837Z,97246.25
2023-03-17T21:21:18.134Z,97241.91
2023-03-17T21:23:45.339Z,97236.84
2023-03-17T21:26:14.212Z,97234.34
2023-03-17T21:28:42.478Z,97241.66
2023-03-17T21:31:12.102Z,97235.19
2023-03-17T21:33:39.832Z,97231.47
2023-03-17T21:36:07.583Z,97236.34
2023-03-17T21:38:35.700Z,97238.06
2023-03-17T21:41:39.539Z,97236.06
2023-03-17T21:44:08.256Z,97239.41
2023-03-17T21:46:35.634Z,97236.13
2023-03-17T21:49:02.697Z,97236.78
2023-03-17T21:51:30.357Z,97234.94
2023-03-17T21:53:57.941Z,97230.69
2023-03-17T21:56:25.805Z,97230.38
2023-03-17T21:58:52.880Z,97231.19
2023-03-17T22:01:23.537Z,97235.94
2023-03-17T22:03:52.237Z,97236.94
2023-03-17T22:06:20.465Z,97247.22
2023-03-17T22:08:48.767Z,97247.09
2023-03-17T22:11:18.740Z,97256.56
2023-03-17T22:13:46.615Z,97252.50
2023-03-17T22:16:15.267Z,97258.09
2023-03-17T22:18:43.088Z,97254.09
2023-03-17T22:21:10.770Z,97261.72
2023-03-17T22:23:42.281Z,97262.94
2023-03-17T22:26:16.755Z,97263.88
2023-03-17T22:28:45.492Z,97264.00
2023-03-17T22:31:19.905Z,97260.53
2023-03-17T22:33:48.820Z,97261.13
2023-03-17T22:36:16.474Z,97271.66
2023-03-17T22:38:44.468Z,97264.41
2023-03-17T22:41:19.597Z,97279.09
2023-03-17T22:43:47.160Z,97279.34
2023-03-17T22:46:15.421Z,97288.84
2023-03-17T22:48:42.956Z,97288.59
2023-03-17T22:51:21.471Z,97287.28
2023-03-17T22:53:50.745Z,97294.63
2023-03-17T22:56:18.816Z,97301.22
2023-03-17T22:58:47.059Z,97300.44
2023-03-17T23:01:16.457Z,97298.81
2023-03-17T23:03:44.099Z,97296.53
2023-03-17T23:06:13.087Z,97292.09
2023-03-17T23:08:43.029Z,97290.59
2023-03-17T23:11:14.585Z,97303.13
2023-03-17T23:13:41.883Z,97302.81
2023-03-17T23:16:10.060Z,97310.53
2023-03-17T23:18:37.524Z,97305.69
2023-03-17T23:21:06.635Z,97309.28
2023-03-17T23:23:35.742Z,97307.50
2023-03-17T23:26:03.043Z,97312.75
2023-03-17T23:28:30.062Z,97319.38
2023-03-17T23:30:57.458Z,97319.47
2023-03-17T23:33:25.603Z,97315.22
2023-03-17T23:35:53.520Z,97316.28
2023-03-17T23:38:21.507Z,97316.13
2023-03-17T23:40:49.952Z,97328.84
2023-03-17T23:43:17.000Z,97319.97
2023-03-17T23:45:45.431Z,97324.41
2023-03-17T23:48:12.735Z,97336.50
2023-03-17T23:50:41.449Z,97330.81
2023-03-17T23:53:09.909Z,97328.53
2023-03-17T23:55:37.160Z,97335.72
2023-03-17T23:58:04.943Z,97334.38
